sensor_id;sensor_type;location;lat;lon;timestamp;P1;durP1;ratioP1;P2;durP2;ratioP2
21168;SDS011;10742;51.816;8.662;2024-03-29T00:02:59;4.37;;;1.20;;
21168;SDS011;10742;51.816;8.662;2024-03-29T00:06:19;1.20;;;0.90;;
21168;SDS011;10742;51.816;8.662;2024-03-29T00:09:39;3.73;;;0.83;;
21168;SDS011;10742;51.816;8.662;2024-03-29T00:12:59;4.40;;;1.73;;
21168;SDS011;10742;51.816;8.662;2024-03-29T00:16:19;8.33;;;3.27;;
21168;SDS011;10742;51.816;8.662;2024-03-29T00:19:42;3.93;;;1.40;;
21168;SDS011;10742;51.816;8.662;2024-03-29T00:23:02;3.83;;;1.20;;
21168;SDS011;10742;51.816;8.662;2024-03-29T00:26:23;4.60;;;1.00;;
21168;SDS011;10742;51.816;8.662;2024-03-29T00:29:43;2.93;;;1.03;;
21168;SDS011;10742;51.816;8.662;2024-03-29T00:33:05;1.60;;;0.60;;
21168;SDS011;10742;51.816;8.662;2024-03-29T00:36:25;3.27;;;0.90;;
21168;SDS011;10742;51.816;8.662;2024-03-29T00:39:46;3.03;;;1.07;;
21168;SDS011;10742;51.816;8.662;2024-03-29T00:43:06;6.00;;;1.00;;
21168;SDS011;10742;51.816;8.662;2024-03-29T00:46:27;5.10;;;1.00;;
21168;SDS011;10742;51.816;8.662;2024-03-29T00:49:47;1.53;;;0.97;;
21168;SDS011;10742;51.816;8.662;2024-03-29T00:53:06;5.80;;;1.13;;
21168;SDS011;10742;51.816;8.662;2024-03-29T00:56:27;6.70;;;1.27;;
21168;SDS011;10742;51.816;8.662;2024-03-29T00:59:47;1.83;;;1.00;;
21168;SDS011;10742;51.816;8.662;2024-03-29T01:03:08;3.17;;;1.00;;
21168;SDS011;10742;51.816;8.662;2024-03-29T01:06:27;4.97;;;1.07;;
21168;SDS011;10742;51.816;8.662;2024-03-29T01:09:47;3.23;;;1.10;;
21168;SDS011;10742;51.816;8.662;2024-03-29T01:13:07;2.90;;;1.00;;
21168;SDS011;10742;51.816;8.662;2024-03-29T01:16:27;2.80;;;0.80;;
21168;SDS011;10742;51.816;8.662;2024-03-29T01:19:47;7.13;;;1.07;;
21168;SDS011;10742;51.816;8.662;2024-03-29T01:23:07;9.07;;;1.30;;
21168;SDS011;10742;51.816;8.662;2024-03-29T01:26:28;4.23;;;1.00;;
21168;SDS011;10742;51.816;8.662;2024-03-29T01:29:48;3.20;;;0.97;;
21168;SDS011;10742;51.816;8.662;2024-03-29T01:33:08;3.73;;;0.90;;
21168;SDS011;10742;51.816;8.662;2024-03-29T01:36:28;4.47;;;0.87;;
21168;SDS011;10742;51.816;8.662;2024-03-29T01:39:49;6.30;;;1.30;;
21168;SDS011;10742;51.816;8.662;2024-03-29T01:43:09;1.97;;;0.80;;
21168;SDS011;10742;51.816;8.662;2024-03-29T01:46:29;7.30;;;1.03;;
21168;SDS011;10742;51.816;8.662;2024-03-29T01:49:49;2.57;;;1.00;;
21168;SDS011;10742;51.816;8.662;2024-03-29T01:53:09;3.53;;;0.87;;
21168;SDS011;10742;51.816;8.662;2024-03-29T01:56:31;1.50;;;0.70;;
21168;SDS011;10742;51.816;8.662;2024-03-29T01:59:52;1.40;;;0.77;;
21168;SDS011;10742;51.816;8.662;2024-03-29T02:03:12;2.93;;;0.90;;
21168;SDS011;10742;51.816;8.662;2024-03-29T02:06:33;2.23;;;1.03;;
21168;SDS011;10742;51.816;8.662;2024-03-29T02:09:54;3.23;;;1.07;;
21168;SDS011;10742;51.816;8.662;2024-03-29T02:13:18;2.37;;;1.10;;
21168;SDS011;10742;51.816;8.662;2024-03-29T02:16:39;6.97;;;1.90;;
21168;SDS011;10742;51.816;8.662;2024-03-29T02:19:59;4.37;;;1.13;;
21168;SDS011;10742;51.816;8.662;2024-03-29T02:23:20;4.00;;;1.40;;
21168;SDS011;10742;51.816;8.662;2024-03-29T02:26:48;3.70;;;1.13;;
21168;SDS011;10742;51.816;8.662;2024-03-29T02:30:12;3.80;;;1.10;;
21168;SDS011;10742;51.816;8.662;2024-03-29T02:33:33;1.97;;;1.00;;
21168;SDS011;10742;51.816;8.662;2024-03-29T02:36:54;4.37;;;1.10;;
21168;SDS011;10742;51.816;8.662;2024-03-29T02:40:14;4.80;;;1.30;;
21168;SDS011;10742;51.816;8.662;2024-03-29T02:43:34;3.17;;;1.23;;
21168;SDS011;10742;51.816;8.662;2024-03-29T02:46:54;6.00;;;1.30;;
21168;SDS011;10742;51.816;8.662;2024-03-29T02:50:15;2.17;;;1.10;;
21168;SDS011;10742;51.816;8.662;2024-03-29T02:53:35;3.00;;;1.23;;
21168;SDS011;10742;51.816;8.662;2024-03-29T02:56:55;6.60;;;1.00;;
21168;SDS011;10742;51.816;8.662;2024-03-29T03:00:16;4.13;;;1.10;;
21168;SDS011;10742;51.816;8.662;2024-03-29T03:03:36;3.97;;;0.97;;
21168;SDS011;10742;51.816;8.662;2024-03-29T03:06:56;1.37;;;0.90;;
21168;SDS011;10742;51.816;8.662;2024-03-29T03:10:44;3.03;;;0.87;;
21168;SDS011;10742;51.816;8.662;2024-03-29T03:14:20;1.77;;;1.13;;
21168;SDS011;10742;51.816;8.662;2024-03-29T03:17:41;6.33;;;1.20;;
21168;SDS011;10742;51.816;8.662;2024-03-29T03:21:01;1.40;;;1.03;;
21168;SDS011;10742;51.816;8.662;2024-03-29T03:24:22;5.00;;;1.00;;
21168;SDS011;10742;51.816;8.662;2024-03-29T03:27:42;4.53;;;1.13;;
21168;SDS011;10742;51.816;8.662;2024-03-29T03:31:02;6.10;;;1.00;;
21168;SDS011;10742;51.816;8.662;2024-03-29T03:34:22;4.83;;;1.23;;
21168;SDS011;10742;51.816;8.662;2024-03-29T03:37:42;3.30;;;0.90;;
21168;SDS011;10742;51.816;8.662;2024-03-29T03:41:02;5.67;;;1.27;;
21168;SDS011;10742;51.816;8.662;2024-03-29T03:44:22;5.27;;;1.43;;
21168;SDS011;10742;51.816;8.662;2024-03-29T03:47:45;7.10;;;1.10;;
21168;SDS011;10742;51.816;8.662;2024-03-29T03:51:05;5.50;;;1.40;;
21168;SDS011;10742;51.816;8.662;2024-03-29T03:54:25;7.27;;;1.37;;
21168;SDS011;10742;51.816;8.662;2024-03-29T03:57:45;5.80;;;1.20;;
21168;SDS011;10742;51.816;8.662;2024-03-29T04:01:05;6.63;;;1.27;;
21168;SDS011;10742;51.816;8.662;2024-03-29T04:04:25;1.20;;;0.83;;
21168;SDS011;10742;51.816;8.662;2024-03-29T04:07:46;3.57;;;1.00;;
21168;SDS011;10742;51.816;8.662;2024-03-29T04:11:06;5.10;;;1.33;;
21168;SDS011;10742;51.816;8.662;2024-03-29T04:14:26;4.17;;;1.20;;
21168;SDS011;10742;51.816;8.662;2024-03-29T04:17:46;2.33;;;0.80;;
21168;SDS011;10742;51.816;8.662;2024-03-29T04:21:06;3.70;;;1.50;;
21168;SDS011;10742;51.816;8.662;2024-03-29T04:24:27;3.17;;;0.80;;
21168;SDS011;10742;51.816;8.662;2024-03-29T04:27:47;1.47;;;0.90;;
21168;SDS011;10742;51.816;8.662;2024-03-29T04:31:08;4.30;;;1.10;;
21168;SDS011;10742;51.816;8.662;2024-03-29T04:34:30;1.90;;;1.20;;
21168;SDS011;10742;51.816;8.662;2024-03-29T04:37:55;2.37;;;1.10;;
21168;SDS011;10742;51.816;8.662;2024-03-29T04:41:15;3.20;;;0.90;;
21168;SDS011;10742;51.816;8.662;2024-03-29T04:44:35;4.47;;;1.33;;
21168;SDS011;10742;51.816;8.662;2024-03-29T04:47:55;4.37;;;1.07;;
21168;SDS011;10742;51.816;8.662;2024-03-29T04:51:15;2.50;;;1.10;;
21168;SDS011;10742;51.816;8.662;2024-03-29T04:54:35;2.13;;;1.00;;
21168;SDS011;10742;51.816;8.662;2024-03-29T04:57:56;2.80;;;1.17;;
21168;SDS011;10742;51.816;8.662;2024-03-29T05:01:15;3.80;;;1.33;;
21168;SDS011;10742;51.816;8.662;2024-03-29T05:04:35;3.10;;;1.00;;
21168;SDS011;10742;51.816;8.662;2024-03-29T05:07:55;3.53;;;0.90;;
21168;SDS011;10742;51.816;8.662;2024-03-29T05:11:16;1.03;;;0.70;;
21168;SDS011;10742;51.816;8.662;2024-03-29T05:14:36;1.53;;;0.93;;
21168;SDS011;10742;51.816;8.662;2024-03-29T05:17:56;3.07;;;0.90;;
21168;SDS011;10742;51.816;8.662;2024-03-29T05:21:16;3.07;;;1.00;;
21168;SDS011;10742;51.816;8.662;2024-03-29T05:24:36;2.63;;;0.97;;
21168;SDS011;10742;51.816;8.662;2024-03-29T05:27:56;3.33;;;0.80;;
21168;SDS011;10742;51.816;8.662;2024-03-29T05:31:16;1.93;;;0.93;;
21168;SDS011;10742;51.816;8.662;2024-03-29T05:34:38;3.50;;;1.17;;
21168;SDS011;10742;51.816;8.662;2024-03-29T05:37:58;2.47;;;1.20;;
21168;SDS011;10742;51.816;8.662;2024-03-29T05:41:18;2.60;;;0.87;;
21168;SDS011;10742;51.816;8.662;2024-03-29T05:44:38;3.87;;;1.10;;
21168;SDS011;10742;51.816;8.662;2024-03-29T05:47:58;3.07;;;0.93;;
21168;SDS011;10742;51.816;8.662;2024-03-29T05:51:18;1.27;;;0.93;;
21168;SDS011;10742;51.816;8.662;2024-03-29T05:54:39;5.43;;;1.10;;
21168;SDS011;10742;51.816;8.662;2024-03-29T05:58:00;3.30;;;1.07;;
21168;SDS011;10742;51.816;8.662;2024-03-29T06:01:20;1.97;;;0.93;;
21168;SDS011;10742;51.816;8.662;2024-03-29T06:04:42;3.07;;;1.10;;
21168;SDS011;10742;51.816;8.662;2024-03-29T06:08:03;2.63;;;1.23;;
21168;SDS011;10742;51.816;8.662;2024-03-29T06:11:25;2.07;;;1.13;;
21168;SDS011;10742;51.816;8.662;2024-03-29T06:14:45;2.17;;;0.90;;
21168;SDS011;10742;51.816;8.662;2024-03-29T06:18:24;3.93;;;1.20;;
21168;SDS011;10742;51.816;8.662;2024-03-29T06:21:44;4.27;;;1.10;;
21168;SDS011;10742;51.816;8.662;2024-03-29T06:25:04;3.73;;;1.30;;
21168;SDS011;10742;51.816;8.662;2024-03-29T06:28:24;2.57;;;1.07;;
21168;SDS011;10742;51.816;8.662;2024-03-29T06:31:44;2.77;;;1.10;;
21168;SDS011;10742;51.816;8.662;2024-03-29T06:35:05;1.67;;;1.10;;
21168;SDS011;10742;51.816;8.662;2024-03-29T06:38:26;2.93;;;1.03;;
21168;SDS011;10742;51.816;8.662;2024-03-29T06:41:45;5.40;;;1.10;;
21168;SDS011;10742;51.816;8.662;2024-03-29T06:45:06;1.83;;;0.80;;
21168;SDS011;10742;51.816;8.662;2024-03-29T06:48:26;3.87;;;1.00;;
21168;SDS011;10742;51.816;8.662;2024-03-29T06:51:46;2.73;;;1.00;;
21168;SDS011;10742;51.816;8.662;2024-03-29T06:55:07;2.70;;;1.00;;
21168;SDS011;10742;51.816;8.662;2024-03-29T06:58:29;5.07;;;1.30;;
21168;SDS011;10742;51.816;8.662;2024-03-29T07:01:49;3.93;;;1.17;;
21168;SDS011;10742;51.816;8.662;2024-03-29T07:05:13;3.30;;;1.10;;
21168;SDS011;10742;51.816;8.662;2024-03-29T07:08:33;3.57;;;1.00;;
21168;SDS011;10742;51.816;8.662;2024-03-29T07:11:53;1.63;;;1.10;;
21168;SDS011;10742;51.816;8.662;2024-03-29T07:15:14;3.03;;;1.17;;
21168;SDS011;10742;51.816;8.662;2024-03-29T07:18:34;4.53;;;1.20;;
21168;SDS011;10742;51.816;8.662;2024-03-29T07:21:54;2.67;;;1.20;;
21168;SDS011;10742;51.816;8.662;2024-03-29T07:25:14;1.57;;;0.90;;
21168;SDS011;10742;51.816;8.662;2024-03-29T07:28:34;7.90;;;2.13;;
21168;SDS011;10742;51.816;8.662;2024-03-29T07:31:54;3.43;;;1.40;;
21168;SDS011;10742;51.816;8.662;2024-03-29T07:35:15;4.83;;;1.27;;
21168;SDS011;10742;51.816;8.662;2024-03-29T07:38:37;5.43;;;1.23;;
21168;SDS011;10742;51.816;8.662;2024-03-29T07:42:00;3.87;;;1.57;;
21168;SDS011;10742;51.816;8.662;2024-03-29T07:45:20;1.93;;;1.47;;
21168;SDS011;10742;51.816;8.662;2024-03-29T07:48:43;15.57;;;6.90;;
21168;SDS011;10742;51.816;8.662;2024-03-29T07:52:03;6.07;;;2.40;;
21168;SDS011;10742;51.816;8.662;2024-03-29T07:55:25;5.70;;;2.10;;
21168;SDS011;10742;51.816;8.662;2024-03-29T07:58:45;9.63;;;2.27;;
21168;SDS011;10742;51.816;8.662;2024-03-29T08:02:05;6.20;;;1.67;;
21168;SDS011;10742;51.816;8.662;2024-03-29T08:05:26;11.07;;;2.30;;
21168;SDS011;10742;51.816;8.662;2024-03-29T08:08:47;15.27;;;2.93;;
21168;SDS011;10742;51.816;8.662;2024-03-29T08:12:07;7.40;;;1.80;;
21168;SDS011;10742;51.816;8.662;2024-03-29T08:15:28;4.83;;;1.60;;
21168;SDS011;10742;51.816;8.662;2024-03-29T08:18:48;8.55;;;1.83;;
21168;SDS011;10742;51.816;8.662;2024-03-29T08:22:08;2.53;;;1.37;;
21168;SDS011;10742;51.816;8.662;2024-03-29T08:25:30;4.37;;;1.20;;
21168;SDS011;10742;51.816;8.662;2024-03-29T08:28:49;4.03;;;1.30;;
21168;SDS011;10742;51.816;8.662;2024-03-29T08:32:09;3.83;;;2.10;;
21168;SDS011;10742;51.816;8.662;2024-03-29T08:35:30;2.47;;;1.50;;
21168;SDS011;10742;51.816;8.662;2024-03-29T08:38:51;3.47;;;1.47;;
21168;SDS011;10742;51.816;8.662;2024-03-29T08:42:12;3.00;;;1.30;;
21168;SDS011;10742;51.816;8.662;2024-03-29T08:45:32;1.00;;;0.90;;
21168;SDS011;10742;51.816;8.662;2024-03-29T08:48:52;1.70;;;1.10;;
21168;SDS011;10742;51.816;8.662;2024-03-29T08:52:12;4.70;;;1.77;;
21168;SDS011;10742;51.816;8.662;2024-03-29T08:55:33;1.73;;;0.90;;
21168;SDS011;10742;51.816;8.662;2024-03-29T08:58:54;2.63;;;1.30;;
21168;SDS011;10742;51.816;8.662;2024-03-29T09:02:14;2.77;;;1.50;;
21168;SDS011;10742;51.816;8.662;2024-03-29T09:05:34;6.60;;;3.80;;
21168;SDS011;10742;51.816;8.662;2024-03-29T09:08:54;8.57;;;4.37;;
21168;SDS011;10742;51.816;8.662;2024-03-29T09:12:14;4.43;;;2.70;;
21168;SDS011;10742;51.816;8.662;2024-03-29T09:15:34;2.93;;;1.77;;
21168;SDS011;10742;51.816;8.662;2024-03-29T09:18:55;4.03;;;1.50;;
21168;SDS011;10742;51.816;8.662;2024-03-29T09:22:15;2.70;;;1.07;;
21168;SDS011;10742;51.816;8.662;2024-03-29T09:25:39;1.73;;;0.93;;
21168;SDS011;10742;51.816;8.662;2024-03-29T09:28:59;1.10;;;0.97;;
21168;SDS011;10742;51.816;8.662;2024-03-29T09:32:19;2.33;;;1.27;;
21168;SDS011;10742;51.816;8.662;2024-03-29T09:35:40;1.57;;;1.27;;
21168;SDS011;10742;51.816;8.662;2024-03-29T09:39:00;5.10;;;2.57;;
21168;SDS011;10742;51.816;8.662;2024-03-29T09:42:22;3.83;;;1.20;;
21168;SDS011;10742;51.816;8.662;2024-03-29T09:45:45;10.27;;;4.03;;
21168;SDS011;10742;51.816;8.662;2024-03-29T09:49:06;1.80;;;1.50;;
21168;SDS011;10742;51.816;8.662;2024-03-29T09:52:26;3.23;;;1.23;;
21168;SDS011;10742;51.816;8.662;2024-03-29T09:55:47;2.03;;;1.27;;
21168;SDS011;10742;51.816;8.662;2024-03-29T09:59:07;5.40;;;2.53;;
21168;SDS011;10742;51.816;8.662;2024-03-29T10:02:28;6.03;;;2.73;;
21168;SDS011;10742;51.816;8.662;2024-03-29T10:05:50;7.97;;;2.90;;
21168;SDS011;10742;51.816;8.662;2024-03-29T10:09:12;6.13;;;2.67;;
21168;SDS011;10742;51.816;8.662;2024-03-29T10:12:32;13.20;;;4.13;;
21168;SDS011;10742;51.816;8.662;2024-03-29T10:15:53;2.90;;;2.03;;
21168;SDS011;10742;51.816;8.662;2024-03-29T10:19:15;2.40;;;1.73;;
21168;SDS011;10742;51.816;8.662;2024-03-29T10:22:40;1.80;;;1.40;;
21168;SDS011;10742;51.816;8.662;2024-03-29T10:26:01;2.80;;;1.57;;
21168;SDS011;10742;51.816;8.662;2024-03-29T10:29:27;4.77;;;1.20;;
21168;SDS011;10742;51.816;8.662;2024-03-29T10:32:50;2.07;;;1.10;;
21168;SDS011;10742;51.816;8.662;2024-03-29T10:36:11;1.20;;;0.60;;
21168;SDS011;10742;51.816;8.662;2024-03-29T10:39:33;1.60;;;0.77;;
21168;SDS011;10742;51.816;8.662;2024-03-29T10:42:55;0.90;;;0.70;;
21168;SDS011;10742;51.816;8.662;2024-03-29T10:46:16;2.80;;;0.80;;
21168;SDS011;10742;51.816;8.662;2024-03-29T10:49:37;1.60;;;0.90;;
21168;SDS011;10742;51.816;8.662;2024-03-29T10:53:00;1.70;;;0.83;;
21168;SDS011;10742;51.816;8.662;2024-03-29T10:56:21;0.87;;;0.87;;
21168;SDS011;10742;51.816;8.662;2024-03-29T10:59:44;1.37;;;0.90;;
21168;SDS011;10742;51.816;8.662;2024-03-29T11:03:32;1.10;;;0.60;;
21168;SDS011;10742;51.816;8.662;2024-03-29T11:06:58;1.03;;;0.63;;
21168;SDS011;10742;51.816;8.662;2024-03-29T11:10:58;1.20;;;1.00;;
21168;SDS011;10742;51.816;8.662;2024-03-29T11:14:14;1.27;;;0.93;;
21168;SDS011;10742;51.816;8.662;2024-03-29T11:17:39;1.33;;;1.23;;
21168;SDS011;10742;51.816;8.662;2024-03-29T11:21:00;0.77;;;0.77;;
21168;SDS011;10742;51.816;8.662;2024-03-29T11:24:22;1.17;;;0.80;;
21168;SDS011;10742;51.816;8.662;2024-03-29T11:27:44;0.87;;;0.63;;
21168;SDS011;10742;51.816;8.662;2024-03-29T11:31:07;0.83;;;0.70;;
21168;SDS011;10742;51.816;8.662;2024-03-29T11:34:31;1.50;;;0.70;;
21168;SDS011;10742;51.816;8.662;2024-03-29T11:37:56;1.57;;;0.87;;
21168;SDS011;10742;51.816;8.662;2024-03-29T11:41:20;1.53;;;0.80;;
21168;SDS011;10742;51.816;8.662;2024-03-29T11:44:43;1.43;;;0.90;;
21168;SDS011;10742;51.816;8.662;2024-03-29T11:48:03;0.87;;;0.70;;
21168;SDS011;10742;51.816;8.662;2024-03-29T11:51:28;0.73;;;0.67;;
21168;SDS011;10742;51.816;8.662;2024-03-29T11:54:50;0.80;;;0.60;;
21168;SDS011;10742;51.816;8.662;2024-03-29T11:58:10;0.70;;;0.63;;
21168;SDS011;10742;51.816;8.662;2024-03-29T12:01:31;0.90;;;0.70;;
21168;SDS011;10742;51.816;8.662;2024-03-29T12:04:53;0.53;;;0.50;;
21168;SDS011;10742;51.816;8.662;2024-03-29T12:08:13;2.63;;;1.13;;
21168;SDS011;10742;51.816;8.662;2024-03-29T12:11:34;1.13;;;0.80;;
21168;SDS011;10742;51.816;8.662;2024-03-29T12:14:55;1.13;;;0.83;;
21168;SDS011;10742;51.816;8.662;2024-03-29T12:18:15;1.30;;;0.93;;
21168;SDS011;10742;51.816;8.662;2024-03-29T12:21:36;1.87;;;1.00;;
21168;SDS011;10742;51.816;8.662;2024-03-29T12:24:56;3.47;;;1.27;;
21168;SDS011;10742;51.816;8.662;2024-03-29T12:28:17;1.63;;;0.90;;
21168;SDS011;10742;51.816;8.662;2024-03-29T12:31:37;1.30;;;1.00;;
21168;SDS011;10742;51.816;8.662;2024-03-29T12:35:07;5.83;;;2.50;;
21168;SDS011;10742;51.816;8.662;2024-03-29T12:38:28;2.57;;;1.50;;
21168;SDS011;10742;51.816;8.662;2024-03-29T12:41:50;2.17;;;1.53;;
21168;SDS011;10742;51.816;8.662;2024-03-29T12:45:11;3.37;;;1.63;;
21168;SDS011;10742;51.816;8.662;2024-03-29T12:48:31;1.87;;;1.13;;
21168;SDS011;10742;51.816;8.662;2024-03-29T12:51:55;1.73;;;1.10;;
21168;SDS011;10742;51.816;8.662;2024-03-29T12:55:15;3.40;;;1.40;;
21168;SDS011;10742;51.816;8.662;2024-03-29T12:58:38;2.73;;;1.60;;
21168;SDS011;10742;51.816;8.662;2024-03-29T13:01:58;2.63;;;1.33;;
21168;SDS011;10742;51.816;8.662;2024-03-29T13:05:18;2.30;;;1.80;;
21168;SDS011;10742;51.816;8.662;2024-03-29T13:08:39;1.40;;;1.00;;
21168;SDS011;10742;51.816;8.662;2024-03-29T13:11:59;0.93;;;0.80;;
21168;SDS011;10742;51.816;8.662;2024-03-29T13:15:20;2.53;;;0.90;;
21168;SDS011;10742;51.816;8.662;2024-03-29T13:18:47;0.53;;;0.53;;
21168;SDS011;10742;51.816;8.662;2024-03-29T13:22:07;1.90;;;0.80;;
21168;SDS011;10742;51.816;8.662;2024-03-29T13:25:28;1.17;;;0.77;;
21168;SDS011;10742;51.816;8.662;2024-03-29T13:28:48;1.17;;;0.67;;
21168;SDS011;10742;51.816;8.662;2024-03-29T13:32:07;2.60;;;0.80;;
21168;SDS011;10742;51.816;8.662;2024-03-29T13:35:27;1.10;;;0.90;;
21168;SDS011;10742;51.816;8.662;2024-03-29T13:38:48;1.13;;;0.73;;
21168;SDS011;10742;51.816;8.662;2024-03-29T13:42:08;1.87;;;1.00;;
21168;SDS011;10742;51.816;8.662;2024-03-29T13:45:28;1.40;;;0.60;;
21168;SDS011;10742;51.816;8.662;2024-03-29T13:48:48;1.10;;;0.70;;
21168;SDS011;10742;51.816;8.662;2024-03-29T13:52:09;1.40;;;0.90;;
21168;SDS011;10742;51.816;8.662;2024-03-29T13:55:29;1.47;;;0.83;;
21168;SDS011;10742;51.816;8.662;2024-03-29T13:58:49;2.17;;;0.90;;
21168;SDS011;10742;51.816;8.662;2024-03-29T14:02:13;2.00;;;0.80;;
21168;SDS011;10742;51.816;8.662;2024-03-29T14:05:36;0.67;;;0.67;;
21168;SDS011;10742;51.816;8.662;2024-03-29T14:08:58;1.40;;;0.73;;
21168;SDS011;10742;51.816;8.662;2024-03-29T14:12:18;1.53;;;0.80;;
21168;SDS011;10742;51.816;8.662;2024-03-29T14:15:41;1.63;;;1.00;;
21168;SDS011;10742;51.816;8.662;2024-03-29T14:19:02;1.37;;;1.07;;
21168;SDS011;10742;51.816;8.662;2024-03-29T14:22:23;1.13;;;0.90;;
21168;SDS011;10742;51.816;8.662;2024-03-29T14:25:44;1.20;;;0.80;;
21168;SDS011;10742;51.816;8.662;2024-03-29T14:29:04;1.30;;;0.70;;
21168;SDS011;10742;51.816;8.662;2024-03-29T14:32:26;4.18;;;1.27;;
21168;SDS011;10742;51.816;8.662;2024-03-29T14:35:46;1.10;;;0.90;;
21168;SDS011;10742;51.816;8.662;2024-03-29T14:39:07;1.87;;;0.80;;
21168;SDS011;10742;51.816;8.662;2024-03-29T14:42:27;0.77;;;0.70;;
21168;SDS011;10742;51.816;8.662;2024-03-29T14:45:49;1.33;;;0.77;;
21168;SDS011;10742;51.816;8.662;2024-03-29T14:49:09;1.30;;;0.70;;
21168;SDS011;10742;51.816;8.662;2024-03-29T14:52:31;1.10;;;0.80;;
21168;SDS011;10742;51.816;8.662;2024-03-29T14:55:51;0.60;;;0.60;;
21168;SDS011;10742;51.816;8.662;2024-03-29T14:59:11;0.70;;;0.70;;
21168;SDS011;10742;51.816;8.662;2024-03-29T15:02:31;0.77;;;0.77;;
21168;SDS011;10742;51.816;8.662;2024-03-29T15:05:52;1.57;;;0.87;;
21168;SDS011;10742;51.816;8.662;2024-03-29T15:09:12;0.57;;;0.57;;
21168;SDS011;10742;51.816;8.662;2024-03-29T15:12:33;1.30;;;0.80;;
21168;SDS011;10742;51.816;8.662;2024-03-29T15:15:56;0.77;;;0.60;;
21168;SDS011;10742;51.816;8.662;2024-03-29T15:19:17;0.70;;;0.70;;
21168;SDS011;10742;51.816;8.662;2024-03-29T15:22:37;0.87;;;0.70;;
21168;SDS011;10742;51.816;8.662;2024-03-29T15:25:58;0.87;;;0.77;;
21168;SDS011;10742;51.816;8.662;2024-03-29T15:29:18;0.63;;;0.60;;
21168;SDS011;10742;51.816;8.662;2024-03-29T15:32:38;0.70;;;0.70;;
21168;SDS011;10742;51.816;8.662;2024-03-29T15:35:58;0.93;;;0.60;;
21168;SDS011;10742;51.816;8.662;2024-03-29T15:39:18;0.80;;;0.70;;
21168;SDS011;10742;51.816;8.662;2024-03-29T15:42:39;1.10;;;0.80;;
21168;SDS011;10742;51.816;8.662;2024-03-29T15:46:01;2.93;;;0.90;;
21168;SDS011;10742;51.816;8.662;2024-03-29T15:49:22;0.80;;;0.80;;
21168;SDS011;10742;51.816;8.662;2024-03-29T15:52:42;0.70;;;0.70;;
21168;SDS011;10742;51.816;8.662;2024-03-29T15:56:03;1.93;;;0.70;;
21168;SDS011;10742;51.816;8.662;2024-03-29T15:59:24;2.20;;;0.90;;
21168;SDS011;10742;51.816;8.662;2024-03-29T16:02:47;1.27;;;0.80;;
21168;SDS011;10742;51.816;8.662;2024-03-29T16:06:08;1.97;;;0.63;;
21168;SDS011;10742;51.816;8.662;2024-03-29T16:09:29;1.17;;;0.70;;
21168;SDS011;10742;51.816;8.662;2024-03-29T16:12:49;1.10;;;1.00;;
21168;SDS011;10742;51.816;8.662;2024-03-29T16:16:09;1.47;;;0.80;;
21168;SDS011;10742;51.816;8.662;2024-03-29T16:19:30;0.80;;;0.80;;
21168;SDS011;10742;51.816;8.662;2024-03-29T16:22:50;1.33;;;0.80;;
21168;SDS011;10742;51.816;8.662;2024-03-29T16:26:10;2.57;;;0.80;;
21168;SDS011;10742;51.816;8.662;2024-03-29T16:29:30;1.13;;;0.90;;
21168;SDS011;10742;51.816;8.662;2024-03-29T16:32:50;1.43;;;0.80;;
21168;SDS011;10742;51.816;8.662;2024-03-29T16:36:12;0.93;;;0.90;;
21168;SDS011;10742;51.816;8.662;2024-03-29T16:39:32;1.10;;;1.00;;
21168;SDS011;10742;51.816;8.662;2024-03-29T16:42:52;1.13;;;1.00;;
21168;SDS011;10742;51.816;8.662;2024-03-29T16:46:12;1.93;;;1.17;;
21168;SDS011;10742;51.816;8.662;2024-03-29T16:49:32;1.43;;;1.00;;
21168;SDS011;10742;51.816;8.662;2024-03-29T16:52:53;3.97;;;1.20;;
21168;SDS011;10742;51.816;8.662;2024-03-29T16:56:13;2.13;;;1.10;;
21168;SDS011;10742;51.816;8.662;2024-03-29T16:59:33;1.00;;;0.80;;
21168;SDS011;10742;51.816;8.662;2024-03-29T17:02:54;1.00;;;0.90;;
21168;SDS011;10742;51.816;8.662;2024-03-29T17:06:15;1.30;;;0.90;;
21168;SDS011;10742;51.816;8.662;2024-03-29T17:09:42;1.40;;;1.10;;
21168;SDS011;10742;51.816;8.662;2024-03-29T17:13:03;1.37;;;1.20;;
21168;SDS011;10742;51.816;8.662;2024-03-29T17:16:23;2.37;;;1.43;;
21168;SDS011;10742;51.816;8.662;2024-03-29T17:19:44;1.47;;;1.27;;
21168;SDS011;10742;51.816;8.662;2024-03-29T17:23:04;1.50;;;1.40;;
21168;SDS011;10742;51.816;8.662;2024-03-29T17:26:25;1.90;;;1.37;;
21168;SDS011;10742;51.816;8.662;2024-03-29T17:29:45;2.23;;;1.33;;
21168;SDS011;10742;51.816;8.662;2024-03-29T17:33:05;1.63;;;1.20;;
21168;SDS011;10742;51.816;8.662;2024-03-29T17:36:25;4.10;;;1.27;;
21168;SDS011;10742;51.816;8.662;2024-03-29T17:39:45;4.07;;;1.40;;
21168;SDS011;10742;51.816;8.662;2024-03-29T17:43:05;3.30;;;1.47;;
21168;SDS011;10742;51.816;8.662;2024-03-29T17:46:27;4.63;;;1.40;;
21168;SDS011;10742;51.816;8.662;2024-03-29T17:49:47;3.30;;;1.50;;
21168;SDS011;10742;51.816;8.662;2024-03-29T17:53:10;3.07;;;1.50;;
21168;SDS011;10742;51.816;8.662;2024-03-29T17:56:30;2.43;;;1.40;;
21168;SDS011;10742;51.816;8.662;2024-03-29T17:59:50;1.63;;;1.20;;
21168;SDS011;10742;51.816;8.662;2024-03-29T18:03:10;2.37;;;1.70;;
21168;SDS011;10742;51.816;8.662;2024-03-29T18:06:30;4.13;;;1.97;;
21168;SDS011;10742;51.816;8.662;2024-03-29T18:09:51;3.67;;;2.00;;
21168;SDS011;10742;51.816;8.662;2024-03-29T18:13:11;3.90;;;2.07;;
21168;SDS011;10742;51.816;8.662;2024-03-29T18:16:31;2.90;;;1.90;;
21168;SDS011;10742;51.816;8.662;2024-03-29T18:19:52;3.00;;;1.87;;
21168;SDS011;10742;51.816;8.662;2024-03-29T18:23:13;3.97;;;2.50;;
21168;SDS011;10742;51.816;8.662;2024-03-29T18:26:33;3.13;;;1.97;;
21168;SDS011;10742;51.816;8.662;2024-03-29T18:29:53;3.87;;;1.87;;
21168;SDS011;10742;51.816;8.662;2024-03-29T18:33:13;2.23;;;1.67;;
21168;SDS011;10742;51.816;8.662;2024-03-29T18:36:33;2.60;;;1.80;;
21168;SDS011;10742;51.816;8.662;2024-03-29T18:39:56;3.83;;;1.83;;
21168;SDS011;10742;51.816;8.662;2024-03-29T18:43:16;1.87;;;1.60;;
21168;SDS011;10742;51.816;8.662;2024-03-29T18:46:37;2.20;;;1.60;;
21168;SDS011;10742;51.816;8.662;2024-03-29T18:49:57;1.80;;;1.50;;
21168;SDS011;10742;51.816;8.662;2024-03-29T18:53:21;2.70;;;1.50;;
21168;SDS011;10742;51.816;8.662;2024-03-29T18:56:41;3.30;;;2.10;;
21168;SDS011;10742;51.816;8.662;2024-03-29T19:00:01;5.53;;;1.70;;
21168;SDS011;10742;51.816;8.662;2024-03-29T19:03:22;4.13;;;1.63;;
21168;SDS011;10742;51.816;8.662;2024-03-29T19:06:42;1.93;;;1.50;;
21168;SDS011;10742;51.816;8.662;2024-03-29T19:10:02;4.77;;;2.70;;
21168;SDS011;10742;51.816;8.662;2024-03-29T19:13:23;3.13;;;1.70;;
21168;SDS011;10742;51.816;8.662;2024-03-29T19:16:43;30.17;;;12.10;;
21168;SDS011;10742;51.816;8.662;2024-03-29T19:20:03;16.60;;;6.23;;
21168;SDS011;10742;51.816;8.662;2024-03-29T19:23:24;28.53;;;11.63;;
21168;SDS011;10742;51.816;8.662;2024-03-29T19:26:45;19.87;;;7.40;;
21168;SDS011;10742;51.816;8.662;2024-03-29T19:30:06;17.23;;;6.90;;
21168;SDS011;10742;51.816;8.662;2024-03-29T19:33:26;4.97;;;2.80;;
21168;SDS011;10742;51.816;8.662;2024-03-29T19:36:46;3.27;;;2.20;;
21168;SDS011;10742;51.816;8.662;2024-03-29T19:40:08;3.07;;;1.83;;
21168;SDS011;10742;51.816;8.662;2024-03-29T19:43:28;1.63;;;1.50;;
21168;SDS011;10742;51.816;8.662;2024-03-29T19:46:51;2.00;;;1.77;;
21168;SDS011;10742;51.816;8.662;2024-03-29T19:50:11;1.93;;;1.20;;
21168;SDS011;10742;51.816;8.662;2024-03-29T19:53:31;1.60;;;1.33;;
21168;SDS011;10742;51.816;8.662;2024-03-29T19:56:51;1.90;;;1.30;;
21168;SDS011;10742;51.816;8.662;2024-03-29T20:00:11;2.23;;;1.27;;
21168;SDS011;10742;51.816;8.662;2024-03-29T20:03:32;2.00;;;1.37;;
21168;SDS011;10742;51.816;8.662;2024-03-29T20:06:52;2.33;;;1.40;;
21168;SDS011;10742;51.816;8.662;2024-03-29T20:10:12;2.57;;;1.40;;
21168;SDS011;10742;51.816;8.662;2024-03-29T20:13:32;2.60;;;1.37;;